sensor_id;sensor_type;location;lat;lon;timestamp;temperature;humidity
25933;DHT22;13731;51.166;4.474;2023-11-19T00:00:57;13.90;99.90
25933;DHT22;13731;51.166;4.474;2023-11-19T00:03:23;13.90;99.90
25933;DHT22;13731;51.166;4.474;2023-11-19T00:05:49;13.90;99.90
25933;DHT22;13731;51.166;4.474;2023-11-19T00:08:16;13.90;99.90
25933;DHT22;13731;51.166;4.474;2023-11-19T00:10:42;13.90;99.90
25933;DHT22;13731;51.166;4.474;2023-11-19T00:13:09;13.90;99.90
25933;DHT22;13731;51.166;4.474;2023-11-19T00:15:36;13.90;99.90
25933;DHT22;13731;51.166;4.474;2023-11-19T00:18:02;13.90;99.90
25933;DHT22;13731;51.166;4.474;2023-11-19T00:20:30;13.90;99.90
25933;DHT22;13731;51.166;4.474;2023-11-19T00:22:56;14.00;99.90
25933;DHT22;13731;51.166;4.474;2023-11-19T00:25:22;14.00;99.90
25933;DHT22;13731;51.166;4.474;2023-11-19T00:27:48;14.00;99.90
25933;DHT22;13731;51.166;4.474;2023-11-19T00:30:16;14.00;99.90
25933;DHT22;13731;51.166;4.474;2023-11-19T00:32:42;14.10;99.90
25933;DHT22;13731;51.166;4.474;2023-11-19T00:35:09;14.10;99.90
25933;DHT22;13731;51.166;4.474;2023-11-19T00:37:36;14.00;99.90
25933;DHT22;13731;51.166;4.474;2023-11-19T00:40:02;14.00;99.90
25933;DHT22;13731;51.166;4.474;2023-11-19T00:42:32;14.00;99.90
25933;DHT22;13731;51.166;4.474;2023-11-19T00:44:57;14.00;99.90
25933;DHT22;13731;51.166;4.474;2023-11-19T00:47:24;13.90;99.90
25933;DHT22;13731;51.166;4.474;2023-11-19T00:49:50;14.00;99.90
25933;DHT22;13731;51.166;4.474;2023-11-19T00:52:17;13.90;99.90
25933;DHT22;13731;51.166;4.474;2023-11-19T00:54:43;13.90;99.90
25933;DHT22;13731;51.166;4.474;2023-11-19T00:57:09;13.90;99.90
25933;DHT22;13731;51.166;4.474;2023-11-19T00:59:35;13.80;99.90
25933;DHT22;13731;51.166;4.474;2023-11-19T01:02:01;13.90;99.90
25933;DHT22;13731;51.166;4.474;2023-11-19T01:04:29;13.80;99.90
25933;DHT22;13731;51.166;4.474;2023-11-19T01:06:55;13.90;99.90
25933;DHT22;13731;51.166;4.474;2023-11-19T01:09:22;13.90;99.90
25933;DHT22;13731;51.166;4.474;2023-11-19T01:11:48;13.90;99.90
25933;DHT22;13731;51.166;4.474;2023-11-19T01:14:14;13.80;99.90
25933;DHT22;13731;51.166;4.474;2023-11-19T01:16:40;13.80;99.90
25933;DHT22;13731;51.166;4.474;2023-11-19T01:19:06;13.80;99.90
25933;DHT22;13731;51.166;4.474;2023-11-19T01:21:32;13.80;99.90
25933;DHT22;13731;51.166;4.474;2023-11-19T01:23:58;13.80;99.90
25933;DHT22;13731;51.166;4.474;2023-11-19T01:26:25;13.70;99.90
25933;DHT22;13731;51.166;4.474;2023-11-19T01:28:52;13.70;99.90
25933;DHT22;13731;51.166;4.474;2023-11-19T01:31:18;13.60;99.90
25933;DHT22;13731;51.166;4.474;2023-11-19T01:33:45;13.70;99.90
25933;DHT22;13731;51.166;4.474;2023-11-19T01:36:14;13.60;99.90
25933;DHT22;13731;51.166;4.474;2023-11-19T01:38:41;13.60;99.90
25933;DHT22;13731;51.166;4.474;2023-11-19T01:41:07;13.60;99.90
25933;DHT22;13731;51.166;4.474;2023-11-19T01:43:38;13.60;99.90
25933;DHT22;13731;51.166;4.474;2023-11-19T01:46:07;13.60;99.90
25933;DHT22;13731;51.166;4.474;2023-11-19T01:48:37;13.60;99.90
25933;DHT22;13731;51.166;4.474;2023-11-19T01:51:07;13.70;99.90
25933;DHT22;13731;51.166;4.474;2023-11-19T01:53:35;13.60;99.90
25933;DHT22;13731;51.166;4.474;2023-11-19T01:56:03;13.60;99.90
25933;DHT22;13731;51.166;4.474;2023-11-19T01:58:30;13.60;99.90
25933;DHT22;13731;51.166;4.474;2023-11-19T02:00:56;13.60;99.90
25933;DHT22;13731;51.166;4.474;2023-11-19T02:03:24;13.70;99.90
25933;DHT22;13731;51.166;4.474;2023-11-19T02:05:52;13.80;99.90
25933;DHT22;13731;51.166;4.474;2023-11-19T02:08:19;13.70;99.90
25933;DHT22;13731;51.166;4.474;2023-11-19T02:10:46;13.80;99.90
25933;DHT22;13731;51.166;4.474;2023-11-19T02:13:12;13.70;99.90
25933;DHT22;13731;51.166;4.474;2023-11-19T02:15:41;13.70;99.90
25933;DHT22;13731;51.166;4.474;2023-11-19T02:18:26;13.70;99.90
25933;DHT22;13731;51.166;4.474;2023-11-19T02:20:59;13.60;99.90
25933;DHT22;13731;51.166;4.474;2023-11-19T02:23:29;13.50;99.90
25933;DHT22;13731;51.166;4.474;2023-11-19T02:26:02;13.50;99.90
25933;DHT22;13731;51.166;4.474;2023-11-19T02:28:32;13.40;99.90
25933;DHT22;13731;51.166;4.474;2023-11-19T02:30:59;13.40;99.90
25933;DHT22;13731;51.166;4.474;2023-11-19T02:33:25;13.40;99.90
25933;DHT22;13731;51.166;4.474;2023-11-19T02:35:51;13.40;99.90
25933;DHT22;13731;51.166;4.474;2023-11-19T02:38:17;13.40;99.90
25933;DHT22;13731;51.166;4.474;2023-11-19T02:40:44;13.40;99.90
25933;DHT22;13731;51.166;4.474;2023-11-19T02:43:11;13.40;99.90
25933;DHT22;13731;51.166;4.474;2023-11-19T02:45:39;13.40;99.90
25933;DHT22;13731;51.166;4.474;2023-11-19T02:48:05;13.40;99.90
25933;DHT22;13731;51.166;4.474;2023-11-19T02:50:32;13.30;99.90
25933;DHT22;13731;51.166;4.474;2023-11-19T02:52:58;13.20;99.90
25933;DHT22;13731;51.166;4.474;2023-11-19T02:55:24;13.20;99.90
25933;DHT22;13731;51.166;4.474;2023-11-19T02:57:51;13.20;99.90
25933;DHT22;13731;51.166;4.474;2023-11-19T03:00:20;13.20;99.90
25933;DHT22;13731;51.166;4.474;2023-11-19T03:02:50;13.10;99.90
25933;DHT22;13731;51.166;4.474;2023-11-19T03:05:26;13.10;99.90
25933;DHT22;13731;51.166;4.474;2023-11-19T03:07:52;13.10;99.90
25933;DHT22;13731;51.166;4.474;2023-11-19T03:10:19;13.20;99.90
25933;DHT22;13731;51.166;4.474;2023-11-19T03:12:45;13.30;99.90
25933;DHT22;13731;51.166;4.474;2023-11-19T03:15:11;13.20;99.90
25933;DHT22;13731;51.166;4.474;2023-11-19T03:17:42;13.20;99.90
25933;DHT22;13731;51.166;4.474;2023-11-19T03:20:10;13.20;99.90
25933;DHT22;13731;51.166;4.474;2023-11-19T03:22:41;13.30;99.90
25933;DHT22;13731;51.166;4.474;2023-11-19T03:25:08;13.40;99.90
25933;DHT22;13731;51.166;4.474;2023-11-19T03:27:36;13.20;99.90
25933;DHT22;13731;51.166;4.474;2023-11-19T03:30:03;13.30;99.90
25933;DHT22;13731;51.166;4.474;2023-11-19T03:32:33;13.20;99.90
25933;DHT22;13731;51.166;4.474;2023-11-19T03:35:03;13.10;99.90
25933;DHT22;13731;51.166;4.474;2023-11-19T03:37:37;13.10;99.90
25933;DHT22;13731;51.166;4.474;2023-11-19T03:40:05;13.10;99.90
25933;DHT22;13731;51.166;4.474;2023-11-19T03:42:32;13.10;99.90
25933;DHT22;13731;51.166;4.474;2023-11-19T03:44:59;13.10;99.90
25933;DHT22;13731;51.166;4.474;2023-11-19T03:47:26;13.10;99.90
25933;DHT22;13731;51.166;4.474;2023-11-19T03:49:52;13.20;99.90
25933;DHT22;13731;51.166;4.474;2023-11-19T03:52:19;13.30;99.90
25933;DHT22;13731;51.166;4.474;2023-11-19T03:54:45;13.20;99.90
25933;DHT22;13731;51.166;4.474;2023-11-19T03:57:12;13.20;99.90
25933;DHT22;13731;51.166;4.474;2023-11-19T03:59:39;13.20;99.90
25933;DHT22;13731;51.166;4.474;2023-11-19T04:02:05;13.30;99.90
25933;DHT22;13731;51.166;4.474;2023-11-19T04:04:32;13.30;99.90
25933;DHT22;13731;51.166;4.474;2023-11-19T04:07:00;13.20;99.90
25933;DHT22;13731;51.166;4.474;2023-11-19T04:09:27;13.30;99.90
25933;DHT22;13731;51.166;4.474;2023-11-19T04:11:53;13.20;99.90
25933;DHT22;13731;51.166;4.474;2023-11-19T04:14:19;13.20;99.90
25933;DHT22;13731;51.166;4.474;2023-11-19T04:16:45;13.10;99.90
25933;DHT22;13731;51.166;4.474;2023-11-19T04:19:11;13.10;99.90
25933;DHT22;13731;51.166;4.474;2023-11-19T04:21:40;13.00;99.90
25933;DHT22;13731;51.166;4.474;2023-11-19T04:24:07;12.90;99.90
25933;DHT22;13731;51.166;4.474;2023-11-19T04:26:33;12.90;99.90
25933;DHT22;13731;51.166;4.474;2023-11-19T04:29:00;12.70;99.90
25933;DHT22;13731;51.166;4.474;2023-11-19T04:31:29;12.70;99.90
25933;DHT22;13731;51.166;4.474;2023-11-19T04:34:01;12.80;99.90
25933;DHT22;13731;51.166;4.474;2023-11-19T04:36:27;12.80;99.90
25933;DHT22;13731;51.166;4.474;2023-11-19T04:38:53;12.80;99.90
25933;DHT22;13731;51.166;4.474;2023-11-19T04:41:19;12.80;99.90
25933;DHT22;13731;51.166;4.474;2023-11-19T04:43:45;12.80;99.90
25933;DHT22;13731;51.166;4.474;2023-11-19T04:46:11;12.80;99.90
25933;DHT22;13731;51.166;4.474;2023-11-19T04:48:37;12.60;99.90
25933;DHT22;13731;51.166;4.474;2023-11-19T04:51:06;12.60;99.90
25933;DHT22;13731;51.166;4.474;2023-11-19T04:53:33;12.50;99.90
25933;DHT22;13731;51.166;4.474;2023-11-19T04:55:59;12.50;99.90
25933;DHT22;13731;51.166;4.474;2023-11-19T04:58:25;12.60;99.90
25933;DHT22;13731;51.166;4.474;2023-11-19T05:00:51;12.50;99.90
25933;DHT22;13731;51.166;4.474;2023-11-19T05:03:17;12.40;99.90
25933;DHT22;13731;51.166;4.474;2023-11-19T05:05:43;12.40;99.90
25933;DHT22;13731;51.166;4.474;2023-11-19T05:08:09;12.50;99.90
25933;DHT22;13731;51.166;4.474;2023-11-19T05:10:37;12.50;99.90
25933;DHT22;13731;51.166;4.474;2023-11-19T05:13:03;12.40;99.90
25933;DHT22;13731;51.166;4.474;2023-11-19T05:15:29;12.40;99.90
25933;DHT22;13731;51.166;4.474;2023-11-19T05:17:55;12.40;99.90
25933;DHT22;13731;51.166;4.474;2023-11-19T05:20:21;12.50;99.90
25933;DHT22;13731;51.166;4.474;2023-11-19T05:22:47;12.50;99.90
25933;DHT22;13731;51.166;4.474;2023-11-19T05:25:14;12.50;99.90
25933;DHT22;13731;51.166;4.474;2023-11-19T05:27:41;12.40;99.90
25933;DHT22;13731;51.166;4.474;2023-11-19T05:30:07;12.40;99.90
25933;DHT22;13731;51.166;4.474;2023-11-19T05:32:34;12.20;99.90
25933;DHT22;13731;51.166;4.474;2023-11-19T05:35:00;12.20;99.90
25933;DHT22;13731;51.166;4.474;2023-11-19T05:37:27;12.30;99.90
25933;DHT22;13731;51.166;4.474;2023-11-19T05:39:53;12.20;99.90
25933;DHT22;13731;51.166;4.474;2023-11-19T05:42:19;12.20;99.90
25933;DHT22;13731;51.166;4.474;2023-11-19T05:44:45;12.30;99.90
25933;DHT22;13731;51.166;4.474;2023-11-19T05:47:11;12.30;99.90
25933;DHT22;13731;51.166;4.474;2023-11-19T05:49:37;12.20;99.90
25933;DHT22;13731;51.166;4.474;2023-11-19T05:52:03;12.20;99.90
25933;DHT22;13731;51.166;4.474;2023-11-19T05:54:33;12.20;99.90
25933;DHT22;13731;51.166;4.474;2023-11-19T05:57:04;12.20;99.90
25933;DHT22;13731;51.166;4.474;2023-11-19T05:59:30;12.10;99.90
25933;DHT22;13731;51.166;4.474;2023-11-19T06:01:59;12.10;99.90
25933;DHT22;13731;51.166;4.474;2023-11-19T06:04:25;12.10;99.90
25933;DHT22;13731;51.166;4.474;2023-11-19T06:06:51;12.20;99.90
25933;DHT22;13731;51.166;4.474;2023-11-19T06:09:17;12.30;99.90
25933;DHT22;13731;51.166;4.474;2023-11-19T06:11:44;12.30;99.90
25933;DHT22;13731;51.166;4.474;2023-11-19T06:14:11;12.30;99.90
25933;DHT22;13731;51.166;4.474;2023-11-19T06:16:37;12.30;99.90
25933;DHT22;13731;51.166;4.474;2023-11-19T06:19:05;12.40;99.90
25933;DHT22;13731;51.166;4.474;2023-11-19T06:21:31;12.40;99.90
25933;DHT22;13731;51.166;4.474;2023-11-19T06:23:58;12.30;99.90
25933;DHT22;13731;51.166;4.474;2023-11-19T06:26:24;12.30;99.90
25933;DHT22;13731;51.166;4.474;2023-11-19T06:28:50;12.30;99.90
25933;DHT22;13731;51.166;4.474;2023-11-19T06:31:16;12.30;99.90
25933;DHT22;13731;51.166;4.474;2023-11-19T06:33:42;12.20;99.90
25933;DHT22;13731;51.166;4.474;2023-11-19T06:36:09;12.20;99.90
25933;DHT22;13731;51.166;4.474;2023-11-19T06:38:35;12.10;99.90
25933;DHT22;13731;51.166;4.474;2023-11-19T06:41:01;12.10;99.90
25933;DHT22;13731;51.166;4.474;2023-11-19T06:43:27;12.10;99.90
25933;DHT22;13731;51.166;4.474;2023-11-19T06:45:56;12.00;99.90
25933;DHT22;13731;51.166;4.474;2023-11-19T06:48:22;12.10;99.90
25933;DHT22;13731;51.166;4.474;2023-11-19T06:50:48;12.00;99.90
25933;DHT22;13731;51.166;4.474;2023-11-19T06:53:14;12.00;99.90
25933;DHT22;13731;51.166;4.474;2023-11-19T06:55:40;12.00;99.90
25933;DHT22;13731;51.166;4.474;2023-11-19T06:58:06;12.00;99.90
25933;DHT22;13731;51.166;4.474;2023-11-19T07:00:32;12.00;99.90
25933;DHT22;13731;51.166;4.474;2023-11-19T07:02:59;12.00;99.90
25933;DHT22;13731;51.166;4.474;2023-11-19T07:05:25;12.00;99.90
25933;DHT22;13731;51.166;4.474;2023-11-19T07:07:57;12.00;99.90
25933;DHT22;13731;51.166;4.474;2023-11-19T07:10:23;12.10;99.90
25933;DHT22;13731;51.166;4.474;2023-11-19T07:12:50;12.00;99.90
25933;DHT22;13731;51.166;4.474;2023-11-19T07:15:16;12.00;99.90
25933;DHT22;13731;51.166;4.474;2023-11-19T07:17:43;12.00;99.90
25933;DHT22;13731;51.166;4.474;2023-11-19T07:20:11;11.90;99.90
25933;DHT22;13731;51.166;4.474;2023-11-19T07:22:43;12.10;99.90
25933;DHT22;13731;51.166;4.474;2023-11-19T07:25:13;12.00;99.90
25933;DHT22;13731;51.166;4.474;2023-11-19T07:27:39;12.00;99.90
25933;DHT22;13731;51.166;4.474;2023-11-19T07:30:06;12.00;99.90
25933;DHT22;13731;51.166;4.474;2023-11-19T07:32:35;12.00;99.90
25933;DHT22;13731;51.166;4.474;2023-11-19T07:35:01;12.00;99.90
25933;DHT22;13731;51.166;4.474;2023-11-19T07:37:28;12.10;99.90
25933;DHT22;13731;51.166;4.474;2023-11-19T07:39:54;12.00;99.90
25933;DHT22;13731;51.166;4.474;2023-11-19T07:42:20;12.00;99.90
25933;DHT22;13731;51.166;4.474;2023-11-19T07:44:46;12.10;99.90
25933;DHT22;13731;51.166;4.474;2023-11-19T07:47:12;12.20;99.90
25933;DHT22;13731;51.166;4.474;2023-11-19T07:49:39;12.40;99.90
25933;DHT22;13731;51.166;4.474;2023-11-19T07:52:05;12.30;99.90
25933;DHT22;13731;51.166;4.474;2023-11-19T07:54:31;12.30;99.90
25933;DHT22;13731;51.166;4.474;2023-11-19T07:56:57;12.30;99.90
25933;DHT22;13731;51.166;4.474;2023-11-19T07:59:23;12.40;99.90
25933;DHT22;13731;51.166;4.474;2023-11-19T08:01:49;12.40;99.90
25933;DHT22;13731;51.166;4.474;2023-11-19T08:04:15;12.50;99.90
25933;DHT22;13731;51.166;4.474;2023-11-19T08:06:41;12.50;99.90
25933;DHT22;13731;51.166;4.474;2023-11-19T08:09:07;12.50;99.90
25933;DHT22;13731;51.166;4.474;2023-11-19T08:11:40;12.40;99.90
25933;DHT22;13731;51.166;4.474;2023-11-19T08:14:07;12.40;99.90
25933;DHT22;13731;51.166;4.474;2023-11-19T08:16:34;12.40;99.90
25933;DHT22;13731;51.166;4.474;2023-11-19T08:18:59;12.50;99.90
25933;DHT22;13731;51.166;4.474;2023-11-19T08:21:25;12.60;99.90
25933;DHT22;13731;51.166;4.474;2023-11-19T08:23:52;12.80;99.90
25933;DHT22;13731;51.166;4.474;2023-11-19T08:26:18;12.80;99.90
25933;DHT22;13731;51.166;4.474;2023-11-19T08:28:44;12.80;99.90
25933;DHT22;13731;51.166;4.474;2023-11-19T08:31:10;12.80;99.90
25933;DHT22;13731;51.166;4.474;2023-11-19T08:33:36;12.80;99.90
25933;DHT22;13731;51.166;4.474;2023-11-19T08:36:03;12.80;99.90
25933;DHT22;13731;51.166;4.474;2023-11-19T08:38:31;12.90;99.90
25933;DHT22;13731;51.166;4.474;2023-11-19T08:40:57;12.90;99.90
25933;DHT22;13731;51.166;4.474;2023-11-19T08:43:26;12.80;99.90
25933;DHT22;13731;51.166;4.474;2023-11-19T08:45:52;12.70;99.90
25933;DHT22;13731;51.166;4.474;2023-11-19T08:48:18;12.80;99.90
25933;DHT22;13731;51.166;4.474;2023-11-19T08:50:44;12.80;99.90
25933;DHT22;13731;51.166;4.474;2023-11-19T08:53:10;12.80;99.90
25933;DHT22;13731;51.166;4.474;2023-11-19T08:55:38;12.90;99.90
25933;DHT22;13731;51.166;4.474;2023-11-19T08:58:04;13.00;99.90
25933;DHT22;13731;51.166;4.474;2023-11-19T09:00:30;13.00;99.90
25933;DHT22;13731;51.166;4.474;2023-11-19T09:02:58;13.00;99.90
25933;DHT22;13731;51.166;4.474;2023-11-19T09:05:24;12.90;99.90
25933;DHT22;13731;51.166;4.474;2023-11-19T09:07:50;12.90;99.90
25933;DHT22;13731;51.166;4.474;2023-11-19T09:10:16;12.80;99.90
25933;DHT22;13731;51.166;4.474;2023-11-19T09:12:42;12.80;99.90
25933;DHT22;13731;51.166;4.474;2023-11-19T09:15:09;12.90;99.90
25933;DHT22;13731;51.166;4.474;2023-11-19T09:17:36;13.00;99.90
25933;DHT22;13731;51.166;4.474;2023-11-19T09:20:03;13.10;99.90
25933;DHT22;13731;51.166;4.474;2023-11-19T09:22:29;12.90;99.90
25933;DHT22;13731;51.166;4.474;2023-11-19T09:24:55;12.90;99.90
25933;DHT22;13731;51.166;4.474;2023-11-19T09:27:21;13.00;99.90
25933;DHT22;13731;51.166;4.474;2023-11-19T09:29:47;13.00;99.90
25933;DHT22;13731;51.166;4.474;2023-11-19T09:32:15;13.10;99.90
25933;DHT22;13731;51.166;4.474;2023-11-19T09:34:41;13.20;99.90
25933;DHT22;13731;51.166;4.474;2023-11-19T09:37:08;13.20;99.90
25933;DHT22;13731;51.166;4.474;2023-11-19T09:39:34;13.30;99.90
25933;DHT22;13731;51.166;4.474;2023-11-19T09:42:00;13.40;99.90
25933;DHT22;13731;51.166;4.474;2023-11-19T09:44:26;13.30;99.90
25933;DHT22;13731;51.166;4.474;2023-11-19T09:46:53;13.40;99.90
25933;DHT22;13731;51.166;4.474;2023-11-19T09:49:21;13.40;99.90
25933;DHT22;13731;51.166;4.474;2023-11-19T09:51:48;13.20;99.90
25933;DHT22;13731;51.166;4.474;2023-11-19T09:54:14;13.30;99.90
25933;DHT22;13731;51.166;4.474;2023-11-19T09:56:40;13.70;99.90
25933;DHT22;13731;51.166;4.474;2023-11-19T09:59:08;14.30;1.00
25933;DHT22;13731;51.166;4.474;2023-11-19T10:01:37;14.50;1.00
25933;DHT22;13731;51.166;4.474;2023-11-19T10:04:06;14.70;99.90
25933;DHT22;13731;51.166;4.474;2023-11-19T10:06:33;14.70;99.90
25933;DHT22;13731;51.166;4.474;2023-11-19T10:08:59;14.60;99.90
25933;DHT22;13731;51.166;4.474;2023-11-19T10:11:25;14.20;99.90
25933;DHT22;13731;51.166;4.474;2023-11-19T10:13:53;14.20;99.90
25933;DHT22;13731;51.166;4.474;2023-11-19T10:16:19;14.10;99.90
25933;DHT22;13731;51.166;4.474;2023-11-19T10:18:47;14.00;99.90
25933;DHT22;13731;51.166;4.474;2023-11-19T10:21:14;13.90;99.90
25933;DHT22;13731;51.166;4.474;2023-11-19T10:24:11;14.00;99.90
25933;DHT22;13731;51.166;4.474;2023-11-19T10:26:37;14.10;99.90
25933;DHT22;13731;51.166;4.474;2023-11-19T10:29:03;14.00;99.90
25933;DHT22;13731;51.166;4.474;2023-11-19T10:31:30;14.00;99.90
25933;DHT22;13731;51.166;4.474;2023-11-19T10:33:56;13.90;1.00
25933;DHT22;13731;51.166;4.474;2023-11-19T10:36:22;13.90;1.00
25933;DHT22;13731;51.166;4.474;2023-11-19T10:38:52;13.80;1.00
25933;DHT22;13731;51.166;4.474;2023-11-19T10:41:32;13.70;99.90
25933;DHT22;13731;51.166;4.474;2023-11-19T10:43:58;13.50;1.00
25933;DHT22;13731;51.166;4.474;2023-11-19T10:46:37;13.30;99.90
25933;DHT22;13731;51.166;4.474;2023-11-19T10:49:04;13.10;1.00
25933;DHT22;13731;51.166;4.474;2023-11-19T10:51:32;13.00;86.40
25933;DHT22;13731;51.166;4.474;2023-11-19T10:54:08;13.00;99.90
25933;DHT22;13731;51.166;4.474;2023-11-19T10:56:35;13.00;99.90
25933;DHT22;13731;51.166;4.474;2023-11-19T10:59:02;13.20;99.90
25933;DHT22;13731;51.166;4.474;2023-11-19T11:01:39;13.50;1.00
25933;DHT22;13731;51.166;4.474;2023-11-19T11:04:21;13.70;1.00
25933;DHT22;13731;51.166;4.474;2023-11-19T11:06:48;14.00;99.90
25933;DHT22;13731;51.166;4.474;2023-11-19T11:09:14;13.80;1.00
25933;DHT22;13731;51.166;4.474;2023-11-19T11:11:41;13.80;1.00
25933;DHT22;13731;51.166;4.474;2023-11-19T11:14:12;13.80;1.00
25933;DHT22;13731;51.166;4.474;2023-11-19T11:16:42;13.70;3.90
25933;DHT22;13731;51.166;4.474;2023-11-19T11:19:09;14.00;1.00
25933;DHT22;13731;51.166;4.474;2023-11-19T11:21:38;14.30;99.90
25933;DHT22;13731;51.166;4.474;2023-11-19T11:37:49;16.20;1.00
25933;DHT22;13731;51.166;4.474;2023-11-19T11:40:17;16.80;1.00
25933;DHT22;13731;51.166;4.474;2023-11-19T11:42:44;16.80;1.00
25933;DHT22;13731;51.166;4.474;2023-11-19T11:45:12;17.60;99.90
25933;DHT22;13731;51.166;4.474;2023-11-19T11:50:18;17.60;99.90
25933;DHT22;13731;51.166;4.474;2023-11-19T11:55:28;17.90;99.90
25933;DHT22;13731;51.166;4.474;2023-11-19T11:57:57;17.60;99.90
25933;DHT22;13731;51.166;4.474;2023-11-19T12:00:32;16.80;99.90
25933;DHT22;13731;51.166;4.474;2023-11-19T12:03:02;15.80;99.90
25933;DHT22;13731;51.166;4.474;2023-11-19T12:05:30;15.40;1.00
25933;DHT22;13731;51.166;4.474;2023-11-19T12:08:04;15.10;1.00
25933;DHT22;13731;51.166;4.474;2023-11-19T12:10:37;14.70;99.90
25933;DHT22;13731;51.166;4.474;2023-11-19T12:13:09;14.30;1.00
25933;DHT22;13731;51.166;4.474;2023-11-19T12:18:24;13.60;99.90
25933;DHT22;13731;51.166;4.474;2023-11-19T12:20:50;13.30;99.90
25933;DHT22;13731;51.166;4.474;2023-11-19T12:23:16;13.20;99.90
25933;DHT22;13731;51.166;4.474;2023-11-19T12:25:42;13.00;99.90
25933;DHT22;13731;51.166;4.474;2023-11-19T12:28:17;12.80;1.00
25933;DHT22;13731;51.166;4.474;2023-11-19T12:30:44;12.80;99.90
25933;DHT22;13731;51.166;4.474;2023-11-19T12:33:10;12.60;99.90
25933;DHT22;13731;51.166;4.474;2023-11-19T12:35:43;12.50;99.90
25933;DHT22;13731;51.166;4.474;2023-11-19T12:38:22;12.40;99.90
25933;DHT22;13731;51.166;4.474;2023-11-19T12:41:02;12.40;1.00
25933;DHT22;13731;51.166;4.474;2023-11-19T12:43:29;12.50;99.90
25933;DHT22;13731;51.166;4.474;2023-11-19T12:45:56;12.60;99.90
25933;DHT22;13731;51.166;4.474;2023-11-19T12:48:22;12.80;99.90
25933;DHT22;13731;51.166;4.474;2023-11-19T12:53:23;13.60;1.00
25933;DHT22;13731;51.166;4.474;2023-11-19T12:55:51;13.90;1.00
25933;DHT22;13731;51.166;4.474;2023-11-19T12:58:33;14.10;99.90
25933;DHT22;13731;51.166;4.474;2023-11-19T13:03:34;13.90;99.90
25933;DHT22;13731;51.166;4.474;2023-11-19T13:06:07;14.80;3.50
25933;DHT22;13731;51.166;4.474;2023-11-19T13:08:39;15.20;82.80
25933;DHT22;13731;51.166;4.474;2023-11-19T13:11:06;14.50;99.90
25933;DHT22;13731;51.166;4.474;2023-11-19T13:14:00;13.90;1.00
25933;DHT22;13731;51.166;4.474;2023-11-19T13:16:27;13.60;1.00
25933;DHT22;13731;51.166;4.474;2023-11-19T13:18:54;13.40;1.00
25933;DHT22;13731;51.166;4.474;2023-11-19T13:21:20;13.30;99.90
25933;DHT22;13731;51.166;4.474;2023-11-19T13:23:46;13.20;99.90
25933;DHT22;13731;51.166;4.474;2023-11-19T13:26:12;13.20;1.00
25933;DHT22;13731;51.166;4.474;2023-11-19T13:28:38;13.10;99.90
25933;DHT22;13731;51.166;4.474;2023-11-19T13:31:05;12.90;99.90
25933;DHT22;13731;51.166;4.474;2023-11-19T13:33:31;13.00;99.90
25933;DHT22;13731;51.166;4.474;2023-11-19T13:35:59;13.60;12.60
25933;DHT22;13731;51.166;4.474;2023-11-19T13:38:34;14.20;99.90
25933;DHT22;13731;51.166;4.474;2023-11-19T13:41:03;14.70;1.00
25933;DHT22;13731;51.166;4.474;2023-11-19T13:43:30;14.60;1.00
25933;DHT22;13731;51.166;4.474;2023-11-19T13:45:56;15.10;99.90
25933;DHT22;13731;51.166;4.474;2023-11-19T13:48:24;15.10;1.00
25933;DHT22;13731;51.166;4.474;2023-11-19T13:50:50;15.30;1.00
25933;DHT22;13731;51.166;4.474;2023-11-19T13:53:16;14.80;1.00
25933;DHT22;13731;51.166;4.474;2023-11-19T13:55:42;14.20;99.90
25933;DHT22;13731;51.166;4.474;2023-11-19T13:58:10;13.80;99.90
25933;DHT22;13731;51.166;4.474;2023-11-19T14:00:36;13.70;1.00
25933;DHT22;13731;51.166;4.474;2023-11-19T14:03:02;13.70;1.00
25933;DHT22;13731;51.166;4.474;2023-11-19T14:05:28;13.60;1.00
25933;DHT22;13731;51.166;4.474;2023-11-19T14:07:54;13.60;1.00
25933;DHT22;13731;51.166;4.474;2023-11-19T14:10:23;13.50;1.00
25933;DHT22;13731;51.166;4.474;2023-11-19T14:12:49;13.60;1.00
25933;DHT22;13731;51.166;4.474;2023-11-19T14:15:15;13.60;1.00
25933;DHT22;13731;51.166;4.474;2023-11-19T14:17:44;13.60;1.00
25933;DHT22;13731;51.166;4.474;2023-11-19T14:20:11;13.40;95.20
25933;DHT22;13731;51.166;4.474;2023-11-19T14:22:45;13.10;99.90
25933;DHT22;13731;51.166;4.474;2023-11-19T14:25:16;13.10;1.00
25933;DHT22;13731;51.166;4.474;2023-11-19T14:27:43;12.90;1.00
25933;DHT22;13731;51.166;4.474;2023-11-19T14:30:10;12.80;1.00
25933;DHT22;13731;51.166;4.474;2023-11-19T14:32:37;12.70;99.90
25933;DHT22;13731;51.166;4.474;2023-11-19T14:35:04;12.70;99.90
25933;DHT22;13731;51.166;4.474;2023-11-19T14:37:30;12.60;99.90
25933;DHT22;13731;51.166;4.474;2023-11-19T14:39:57;12.50;99.90
25933;DHT22;13731;51.166;4.474;2023-11-19T14:42:24;12.40;1.00
25933;DHT22;13731;51.166;4.474;2023-11-19T14:44:51;12.40;99.90
25933;DHT22;13731;51.166;4.474;2023-11-19T14:47:23;12.40;1.00
25933;DHT22;13731;51.166;4.474;2023-11-19T14:49:49;12.30;99.90
25933;DHT22;13731;51.166;4.474;2023-11-19T14:52:15;12.30;1.00
25933;DHT22;13731;51.166;4.474;2023-11-19T14:54:41;12.30;97.30
25933;DHT22;13731;51.166;4.474;2023-11-19T14:57:07;12.30;99.90
25933;DHT22;13731;51.166;4.474;2023-11-19T14:59:37;12.20;99.90
25933;DHT22;13731;51.166;4.474;2023-11-19T15:02:03;12.20;1.00
25933;DHT22;13731;51.166;4.474;2023-11-19T15:04:29;12.20;99.90
25933;DHT22;13731;51.166;4.474;2023-11-19T15:06:59;12.20;99.90
25933;DHT22;13731;51.166;4.474;2023-11-19T15:09:26;12.10;99.90
25933;DHT22;13731;51.166;4.474;2023-11-19T15:11:55;12.10;1.00
25933;DHT22;13731;51.166;4.474;2023-11-19T15:14:21;12.10;1.00
25933;DHT22;13731;51.166;4.474;2023-11-19T15:16:47;12.00;99.90
25933;DHT22;13731;51.166;4.474;2023-11-19T15:19:16;12.00;99.90
25933;DHT22;13731;51.166;4.474;2023-11-19T15:21:42;12.10;99.90
25933;DHT22;13731;51.166;4.474;2023-11-19T15:24:08;12.00;99.90
25933;DHT22;13731;51.166;4.474;2023-11-19T15:26:35;12.00;99.90
25933;DHT22;13731;51.166;4.474;2023-11-19T15:29:02;12.10;99.90
25933;DHT22;13731;51.166;4.474;2023-11-19T15:31:28;12.10;99.90
25933;DHT22;13731;51.166;4.474;2023-11-19T15:33:55;12.10;1.00
25933;DHT22;13731;51.166;4.474;2023-11-19T15:36:20;12.10;1.00
25933;DHT22;13731;51.166;4.474;2023-11-19T15:38:47;12.10;99.90
25933;DHT22;13731;51.166;4.474;2023-11-19T15:41:13;12.10;1.00
25933;DHT22;13731;51.166;4.474;2023-11-19T15:43:39;12.00;1.00
25933;DHT22;13731;51.166;4.474;2023-11-19T15:46:08;12.00;99.90
25933;DHT22;13731;51.166;4.474;2023-11-19T15:48:35;12.00;99.90
25933;DHT22;13731;51.166;4.474;2023-11-19T15:51:01;12.00;1.00
25933;DHT22;13731;51.166;4.474;2023-11-19T15:53:28;12.00;1.00
25933;DHT22;13731;51.166;4.474;2023-11-19T15:55:54;12.00;99.90
25933;DHT22;13731;51.166;4.474;2023-11-19T15:58:20;12.00;99.90
25933;DHT22;13731;51.166;4.474;2023-11-19T16:00:48;12.00;99.90